Time;durP1;ratioP1;P1;durP2;ratioP2;P2;SDS_P1;SDS_P2;PMS_P1;PMS_P2;Temp;Humidity;BMP_temperature;BMP_pressure;BME280_temperature;BME280_humidity;BME280_pressure;Samples;Min_cycle;Max_cycle;Signal;HPM_P1;HPM_P2
2022/09/30 00:01:38;;;;;;;3.03;1.98;;;11.20;99.90;;;;;;5050296;28;20127;-37
2022/09/30 00:04:05;;;;;;;4.85;2.17;;;11.20;99.90;;;;;;5044502;28;20509;-36
2022/09/30 00:06:33;;;;;;;4.43;2.67;;;11.20;99.90;;;;;;5049691;28;20041;-36
2022/09/30 00:09:01;;;;;;;3.30;2.00;;;11.20;99.90;;;;;;5050759;28;20374;-36
2022/09/30 00:11:33;;;;;;;5.45;2.22;;;11.20;99.90;;;;;;5049342;28;20106;-37
2022/09/30 00:14:00;;;;;;;3.42;2.25;;;11.20;99.90;;;;;;5050776;28;20044;-37
2022/09/30 00:16:29;;;;;;;6.38;2.78;;;11.20;99.90;;;;;;5053271;28;20041;-36
2022/09/30 00:18:57;;;;;;;4.90;2.50;;;11.20;99.90;;;;;;5051582;28;20048;-36
2022/09/30 00:21:23;;;;;;;4.40;2.72;;;11.20;99.90;;;;;;5049476;28;20032;-36
2022/09/30 00:23:50;;;;;;;3.72;2.60;;;11.10;99.90;;;;;;5048646;28;20080;-36
2022/09/30 00:26:19;;;;;;;4.55;2.67;;;11.10;99.90;;;;;;5052876;28;20553;-36
2022/09/30 00:28:48;;;;;;;3.72;2.63;;;11.00;99.90;;;;;;5047275;28;20504;-36
2022/09/30 00:31:15;;;;;;;3.67;2.25;;;11.00;99.90;;;;;;5048826;28;20047;-36
2022/09/30 00:33:42;;;;;;;4.88;2.22;;;10.90;99.90;;;;;;5058179;28;20067;-36
2022/09/30 00:36:08;;;;;;;4.70;2.63;;;10.90;99.90;;;;;;5049545;28;20033;-36
2022/09/30 00:38:34;;;;;;;3.67;2.42;;;10.80;99.90;;;;;;5051060;28;20047;-37
2022/09/30 00:41:02;;;;;;;3.95;2.38;;;10.80;99.90;;;;;;5047797;28;20036;-36
2022/09/30 00:43:57;;;;;;;4.35;2.33;;;10.70;99.90;;;;;;5058576;28;20043;-36
2022/09/30 00:46:37;;;;;;;4.20;2.58;;;10.70;99.90;;;;;;5021615;28;20128;-36
2022/09/30 00:49:12;;;;;;;4.50;2.78;;;10.70;99.90;;;;;;5046896;28;20065;-46
2022/09/30 00:51:44;;;;;;;5.45;2.80;;;10.60;99.90;;;;;;5058076;28;20043;-37
2022/09/30 00:54:16;;;;;;;3.83;2.47;;;10.50;99.90;;;;;;5052759;28;20032;-36
2022/09/30 00:56:45;;;;;;;4.53;2.60;;;10.50;99.90;;;;;;5048247;28;20116;-36
2022/09/30 00:59:22;;;;;;;4.72;3.10;;;10.40;99.90;;;;;;5051234;28;20094;-36
2022/09/30 01:01:50;;;;;;;8.30;2.78;;;10.40;99.90;;;;;;5049225;28;20106;-36
2022/09/30 01:04:22;;;;;;;5.13;2.90;;;10.40;99.90;;;;;;5054480;28;20045;-36
2022/09/30 01:06:48;;;;;;;5.55;2.78;;;10.30;99.90;;;;;;5047112;28;20029;-36
2022/09/30 01:09:15;;;;;;;4.55;2.55;;;10.30;99.90;;;;;;5056000;28;20737;-36
2022/09/30 01:11:40;;;;;;;5.07;3.00;;;10.20;99.90;;;;;;5056553;28;20490;-36
2022/09/30 01:14:16;;;;;;;4.75;2.85;;;10.20;99.90;;;;;;5052531;28;20127;-36
2022/09/30 01:16:42;;;;;;;4.68;3.33;;;10.10;99.90;;;;;;5048300;28;20049;-36
2022/09/30 01:19:56;;;;;;;4.18;2.67;;;10.10;99.90;;;;;;5047955;28;20078;-36
2022/09/30 01:22:35;;;;;;;5.45;3.15;;;10.00;99.90;;;;;;5046659;28;20524;-36
2022/09/30 01:25:24;;;;;;;6.03;2.97;;;9.90;99.90;;;;;;5047929;28;20037;-36
2022/09/30 01:28:08;;;;;;;4.93;3.17;;;9.90;99.90;;;;;;5047513;28;20041;-36
2022/09/30 01:31:06;;;;;;;5.95;3.25;;;9.90;99.90;;;;;;5056044;28;20033;-37
2022/09/30 01:33:50;;;;;;;5.10;3.15;;;9.80;99.90;;;;;;5051496;28;20124;-36
2022/09/30 01:36:48;;;;;;;3.90;2.60;;;9.80;99.90;;;;;;5055098;28;20054;-36
2022/09/30 01:39:49;;;;;;;5.03;3.17;;;9.80;99.90;;;;;;5051509;28;20077;-36
2022/09/30 01:42:24;;;;;;;4.05;2.50;;;9.70;99.90;;;;;;5055669;28;20032;-36
2022/09/30 01:45:17;;;;;;;5.70;3.10;;;9.60;99.90;;;;;;5045845;28;20521;-36
2022/09/30 01:47:54;;;;;;;4.93;2.65;;;9.60;99.90;;;;;;5053314;28;20517;-36
2022/09/30 01:50:26;;;;;;;5.78;3.25;;;9.50;99.90;;;;;;5049414;28;20037;-36
2022/09/30 01:53:25;;;;;;;5.80;3.50;;;9.40;99.90;;;;;;5051066;28;20037;-39
2022/09/30 01:56:02;;;;;;;7.40;3.72;;;9.40;99.90;;;;;;5049173;28;20553;-36
2022/09/30 01:58:39;;;;;;;4.25;2.45;;;9.30;99.90;;;;;;5054831;28;20481;-36
2022/09/30 02:01:11;;;;;;;4.15;2.47;;;9.30;99.90;;;;;;5055153;28;20051;-36
2022/09/30 02:03:48;;;;;;;4.60;3.05;;;9.30;99.90;;;;;;5049655;28;20044;-36
2022/09/30 02:06:21;;;;;;;6.28;2.90;;;9.20;99.90;;;;;;5034202;28;20048;-36
2022/09/30 02:08:54;;;;;;;4.75;2.58;;;9.10;99.90;;;;;;5043192;28;20505;-36
2022/09/30 02:11:47;;;;;;;4.32;2.65;;;9.10;99.90;;;;;;5044231;28;20041;-36
2022/09/30 02:14:29;;;;;;;4.15;2.47;;;9.10;99.90;;;;;;5049294;28;20060;-37
2022/09/30 02:17:02;;;;;;;5.82;3.47;;;9.00;99.90;;;;;;5052475;28;20119;-36
2022/09/30 02:19:38;;;;;;;5.25;3.40;;;9.00;99.90;;;;;;5052692;28;20513;-36
2022/09/30 02:22:21;;;;;;;5.50;3.78;;;8.90;99.90;;;;;;5059664;28;20041;-36
2022/09/30 02:24:51;;;;;;;5.25;3.38;;;8.90;99.90;;;;;;5048681;28;20036;-36
2022/09/30 02:27:39;;;;;;;4.32;3.10;;;8.90;99.90;;;;;;5054199;28;20045;-37
2022/09/30 02:30:08;;;;;;;4.28;2.78;;;8.80;99.90;;;;;;5047456;28;20044;-37
2022/09/30 02:32:42;;;;;;;4.57;2.60;;;8.90;99.90;;;;;;5051630;28;20493;-37
2022/09/30 02:35:18;;;;;;;5.85;3.75;;;8.90;99.90;;;;;;5050702;28;20041;-38
2022/09/30 02:37:49;;;;;;;5.82;3.10;;;8.80;99.90;;;;;;5031970;28;20425;-37
2022/09/30 02:40:23;;;;;;;6.32;3.80;;;8.80;99.90;;;;;;5050061;28;20048;-38
2022/09/30 02:42:49;;;;;;;5.78;3.40;;;8.70;99.90;;;;;;5056356;28;20052;-37
2022/09/30 02:45:22;;;;;;;7.10;3.45;;;8.70;99.90;;;;;;5052027;28;20405;-37
2022/09/30 02:48:02;;;;;;;5.32;3.38;;;8.70;99.90;;;;;;5051932;28;20086;-37
2022/09/30 02:50:50;;;;;;;6.40;4.43;;;8.70;99.90;;;;;;5042080;28;20086;-36
2022/09/30 02:53:28;;;;;;;5.22;3.25;;;8.70;99.90;;;;;;5047790;28;20045;-37
2022/09/30 02:56:25;;;;;;;5.40;3.03;;;8.60;99.90;;;;;;5050365;28;20045;-37
2022/09/30 02:58:52;;;;;;;4.85;3.42;;;8.60;99.90;;;;;;5046324;28;20525;-38
2022/09/30 03:01:19;;;;;;;4.97;3.53;;;8.60;99.90;;;;;;5050244;28;20053;-37
2022/09/30 03:04:06;;;;;;;4.60;2.97;;;8.60;99.90;;;;;;5051329;28;20060;-37
2022/09/30 03:06:34;;;;;;;5.88;4.13;;;8.60;99.90;;;;;;5053310;28;20171;-38
2022/09/30 03:09:01;;;;;;;6.00;3.00;;;8.60;99.90;;;;;;5052903;28;20040;-38
2022/09/30 03:11:28;;;;;;;6.13;3.63;;;8.50;99.90;;;;;;5050914;28;20405;-38
2022/09/30 03:14:15;;;;;;;6.18;3.75;;;8.50;99.90;;;;;;5050113;28;20048;-36
2022/09/30 03:17:18;;;;;;;5.28;3.42;;;8.50;99.90;;;;;;5015169;28;20068;-38
2022/09/30 03:19:46;;;;;;;6.10;3.35;;;8.50;99.90;;;;;;5047107;28;20045;-37
2022/09/30 03:22:37;;;;;;;5.00;3.13;;;8.40;99.90;;;;;;5045703;28;20052;-38
2022/09/30 03:25:15;;;;;;;5.28;3.38;;;8.40;99.90;;;;;;5047298;28;20482;-36
2022/09/30 03:27:48;;;;;;;5.18;3.40;;;8.40;99.90;;;;;;5052736;28;20489;-37
2022/09/30 03:30:17;;;;;;;5.72;3.33;;;8.40;99.90;;;;;;5052442;28;20082;-37
2022/09/30 03:33:05;;;;;;;8.07;3.13;;;8.30;99.90;;;;;;5049198;28;20052;-37
2022/09/30 03:36:05;;;;;;;4.95;2.97;;;8.30;99.90;;;;;;5055839;28;20756;-36
2022/09/30 03:38:37;;;;;;;4.53;2.88;;;8.30;99.90;;;;;;5049839;28;20446;-37
2022/09/30 03:41:14;;;;;;;4.80;3.43;;;8.30;99.90;;;;;;5047501;28;20055;-37
2022/09/30 03:44:00;;;;;;;6.25;3.47;;;8.30;99.90;;;;;;5049072;28;20100;-37
2022/09/30 03:46:35;;;;;;;4.35;3.17;;;8.30;99.90;;;;;;5046244;28;20044;-37
2022/09/30 03:49:06;;;;;;;5.38;3.47;;;8.20;99.90;;;;;;5053633;28;20033;-38
2022/09/30 03:51:35;;;;;;;4.18;2.53;;;8.20;99.90;;;;;;5051012;28;20044;-37
2022/09/30 03:54:01;;;;;;;4.47;3.05;;;8.20;99.90;;;;;;5049583;28;20044;-37
2022/09/30 03:56:28;;;;;;;4.55;2.83;;;8.20;99.90;;;;;;5048650;28;20441;-37
2022/09/30 03:58:55;;;;;;;4.60;3.13;;;8.10;99.90;;;;;;5051289;28;20075;-37
2022/09/30 04:01:22;;;;;;;4.43;2.97;;;8.10;99.90;;;;;;5051772;28;20036;-38
2022/09/30 04:03:52;;;;;;;5.03;2.95;;;8.10;99.90;;;;;;5050293;28;20041;-37
2022/09/30 04:06:23;;;;;;;5.22;3.30;;;8.10;99.90;;;;;;5048797;28;20516;-37
2022/09/30 04:08:49;;;;;;;4.43;2.92;;;8.10;99.90;;;;;;5048784;28;20116;-37
2022/09/30 04:11:15;;;;;;;5.45;3.33;;;8.10;99.90;;;;;;5048716;28;20147;-37
2022/09/30 04:13:41;;;;;;;5.07;3.47;;;8.00;99.90;;;;;;5048612;28;20553;-38
2022/09/30 04:16:07;;;;;;;6.50;2.97;;;8.00;99.90;;;;;;5049203;28;20116;-37
2022/09/30 04:18:37;;;;;;;6.45;3.45;;;8.00;99.90;;;;;;5047604;28;20642;-38
2022/09/30 04:21:12;;;;;;;5.20;2.80;;;8.00;99.90;;;;;;5048340;28;20051;-37
2022/09/30 04:23:40;;;;;;;5.10;2.50;;;8.00;99.90;;;;;;5046968;28;20136;-38
2022/09/30 04:26:08;;;;;;;4.38;2.92;;;7.90;99.90;;;;;;5049489;28;20029;-37
2022/09/30 04:28:34;;;;;;;6.75;3.75;;;7.90;99.90;;;;;;5048102;28;20055;-37
2022/09/30 04:31:05;;;;;;;4.72;2.83;;;7.90;99.90;;;;;;5048134;28;20033;-37
2022/09/30 04:33:31;;;;;;;5.13;2.85;;;7.90;99.90;;;;;;5046103;28;20485;-38
2022/09/30 04:35:58;;;;;;;5.20;3.13;;;7.90;99.90;;;;;;5050933;28;20045;-37
2022/09/30 04:38:25;;;;;;;5.60;3.83;;;7.90;99.90;;;;;;5055621;28;20039;-42
2022/09/30 04:40:51;;;;;;;5.15;3.00;;;7.80;99.90;;;;;;5054923;28;20036;-42
2022/09/30 04:43:18;;;;;;;4.57;2.92;;;7.80;99.90;;;;;;5055125;28;20040;-38
2022/09/30 04:45:45;;;;;;;4.05;2.45;;;7.80;99.90;;;;;;5046211;28;20041;-37
2022/09/30 04:48:12;;;;;;;4.20;2.90;;;7.80;99.90;;;;;;5050235;28;20045;-38
2022/09/30 04:50:38;;;;;;;4.50;3.15;;;7.80;99.90;;;;;;5052687;28;20041;-38
2022/09/30 04:53:04;;;;;;;5.22;3.25;;;7.80;99.90;;;;;;5053002;28;20494;-37
2022/09/30 04:55:30;;;;;;;4.78;3.15;;;7.70;99.90;;;;;;5046859;28;20043;-37
2022/09/30 04:57:55;;;;;;;4.40;2.80;;;7.70;99.90;;;;;;5048917;28;20124;-38
2022/09/30 05:00:21;;;;;;;5.03;3.25;;;7.70;99.90;;;;;;5047940;28;20098;-38
2022/09/30 05:02:47;;;;;;;4.85;2.60;;;7.70;99.90;;;;;;5050711;28;20105;-38
2022/09/30 05:05:13;;;;;;;5.03;3.10;;;7.60;99.90;;;;;;5049312;28;20048;-38
2022/09/30 05:07:39;;;;;;;4.43;2.72;;;7.60;99.90;;;;;;5034405;28;20040;-38
2022/09/30 05:10:07;;;;;;;5.93;3.88;;;7.60;99.90;;;;;;5048012;28;20440;-37
2022/09/30 05:12:33;;;;;;;5.05;2.83;;;7.50;99.90;;;;;;5038975;28;20047;-37
2022/09/30 05:14:59;;;;;;;3.58;2.35;;;7.50;99.90;;;;;;5049821;28;20033;-37
2022/09/30 05:17:25;;;;;;;4.82;3.05;;;7.50;99.90;;;;;;5027740;28;20037;-37
2022/09/30 05:19:51;;;;;;;5.55;2.80;;;7.50;99.90;;;;;;5044403;28;20103;-38
2022/09/30 05:22:16;;;;;;;3.50;2.40;;;7.50;99.90;;;;;;5048346;28;20059;-38
2022/09/30 05:24:42;;;;;;;5.40;3.33;;;7.40;99.90;;;;;;5046070;28;20111;-38
2022/09/30 05:27:08;;;;;;;5.30;2.80;;;7.40;99.90;;;;;;5050836;28;20554;-37
2022/09/30 05:29:34;;;;;;;9.15;4.45;;;7.40;99.90;;;;;;5044751;28;20037;-37
2022/09/30 05:32:00;;;;;;;5.10;2.35;;;7.30;99.90;;;;;;5032655;28;20064;-37
2022/09/30 05:34:25;;;;;;;6.32;2.80;;;7.40;99.90;;;;;;5046087;28;20053;-38
2022/09/30 05:36:52;;;;;;;4.63;2.78;;;7.30;99.90;;;;;;5049807;28;20091;-37
2022/09/30 05:39:17;;;;;;;4.70;3.30;;;7.30;99.90;;;;;;5051893;28;20080;-37
2022/09/30 05:41:43;;;;;;;4.07;2.60;;;7.30;99.90;;;;;;5047581;28;20075;-38
2022/09/30 05:44:09;;;;;;;4.97;2.78;;;7.30;99.90;;;;;;5049243;28;20045;-38
2022/09/30 05:46:34;;;;;;;4.18;2.50;;;7.20;99.90;;;;;;5045516;28;20076;-37
2022/09/30 05:49:00;;;;;;;4.65;2.92;;;7.20;99.90;;;;;;5046517;28;20067;-38
2022/09/30 05:51:26;;;;;;;4.88;3.05;;;7.20;99.90;;;;;;5039084;28;20067;-37
2022/09/30 05:53:51;;;;;;;5.47;2.60;;;7.20;99.90;;;;;;5038390;28;20045;-37
2022/09/30 05:56:17;;;;;;;5.30;2.70;;;7.20;99.90;;;;;;5042271;28;20044;-43
2022/09/30 05:58:43;;;;;;;4.80;3.10;;;7.20;99.90;;;;;;5034518;28;20060;-36
2022/09/30 06:01:11;;;;;;;4.65;2.55;;;7.30;99.90;;;;;;5032555;28;20489;-37
2022/09/30 06:03:37;;;;;;;4.22;1.95;;;7.30;99.90;;;;;;5048716;28;20091;-38
2022/09/30 06:06:05;;;;;;;4.80;2.80;;;7.30;99.90;;;;;;5048022;28;20049;-38
2022/09/30 06:08:31;;;;;;;4.07;2.95;;;7.30;99.90;;;;;;5041057;28;20060;-37
2022/09/30 06:11:00;;;;;;;7.05;3.38;;;7.30;99.90;;;;;;5031445;28;20401;-37
2022/09/30 06:13:27;;;;;;;4.28;2.78;;;7.30;99.90;;;;;;5048003;28;20044;-38
2022/09/30 06:16:00;;;;;;;4.97;2.90;;;7.30;99.90;;;;;;5049110;28;20536;-38
2022/09/30 06:18:28;;;;;;;4.45;2.65;;;7.30;99.90;;;;;;5050903;28;20547;-37
2022/09/30 06:20:58;;;;;;;6.47;3.00;;;7.30;99.90;;;;;;5048655;28;20103;-37
2022/09/30 06:23:24;;;;;;;4.53;2.90;;;7.40;99.90;;;;;;5051497;28;20040;-38
2022/09/30 06:25:52;;;;;;;3.67;2.33;;;7.40;99.90;;;;;;5052197;28;20116;-38
2022/09/30 06:28:18;;;;;;;6.38;3.20;;;7.40;99.90;;;;;;5053408;28;20565;-37
2022/09/30 06:30:46;;;;;;;6.43;2.90;;;7.40;99.90;;;;;;5048393;28;20049;-39
2022/09/30 06:33:13;;;;;;;7.10;3.70;;;7.40;99.90;;;;;;5033694;28;20042;-37
2022/09/30 06:35:43;;;;;;;6.57;3.55;;;7.40;99.90;;;;;;5055472;28;20142;-37
2022/09/30 06:38:09;;;;;;;5.28;2.75;;;7.40;99.90;;;;;;5033666;28;20041;-37
2022/09/30 06:40:36;;;;;;;7.43;3.30;;;7.40;99.90;;;;;;5047803;28;20036;-39
2022/09/30 06:43:02;;;;;;;4.75;2.88;;;7.40;99.90;;;;;;5048717;28;20485;-36
2022/09/30 06:45:31;;;;;;;5.18;2.97;;;7.50;99.90;;;;;;5050995;28;20029;-38
2022/09/30 06:47:59;;;;;;;6.80;3.67;;;7.50;99.90;;;;;;5052672;28;20079;-38
2022/09/30 06:50:25;;;;;;;4.07;2.60;;;7.50;99.90;;;;;;5051230;28;20441;-38
2022/09/30 06:52:51;;;;;;;4.85;2.95;;;7.50;99.90;;;;;;5048422;28;20478;-38
2022/09/30 06:55:23;;;;;;;6.72;3.10;;;7.60;99.90;;;;;;5049598;28;20044;-39
2022/09/30 06:57:49;;;;;;;7.07;3.78;;;7.60;99.90;;;;;;5033299;28;20128;-37
2022/09/30 07:00:15;;;;;;;7.43;3.03;;;7.70;99.90;;;;;;5052174;28;20116;-36
2022/09/30 07:02:41;;;;;;;5.57;2.90;;;7.70;99.90;;;;;;5043274;28;20049;-39
2022/09/30 07:05:08;;;;;;;6.55;3.60;;;7.70;99.90;;;;;;5049053;28;20037;-36
2022/09/30 07:07:35;;;;;;;7.03;3.75;;;7.80;99.90;;;;;;5050563;28;20124;-38
2022/09/30 07:10:01;;;;;;;6.32;3.88;;;7.80;99.90;;;;;;5043386;28;20536;-39
2022/09/30 07:12:27;;;;;;;6.70;3.78;;;7.90;99.90;;;;;;5050718;28;20102;-37
2022/09/30 07:14:54;;;;;;;7.05;3.90;;;7.90;99.90;;;;;;5038936;28;20048;-37
2022/09/30 07:17:20;;;;;;;5.72;3.80;;;8.00;99.90;;;;;;5054514;28;20497;-37
2022/09/30 07:19:46;;;;;;;6.35;3.97;;;8.10;99.90;;;;;;5055788;28;20120;-37
2022/09/30 07:22:28;;;;;;;7.05;4.30;;;8.10;99.90;;;;;;5046400;28;20124;-41
2022/09/30 07:24:59;;;;;;;5.07;3.03;;;8.30;99.90;;;;;;5058457;28;20045;-37
2022/09/30 07:27:26;;;;;;;7.07;3.72;;;8.30;99.90;;;;;;5051436;28;20587;-36
2022/09/30 07:29:53;;;;;;;5.68;3.40;;;8.40;99.90;;;;;;5053818;28;20440;-41
2022/09/30 07:32:20;;;;;;;6.43;3.70;;;8.50;99.90;;;;;;5051701;28;20049;-38
2022/09/30 07:34:46;;;;;;;6.10;3.45;;;8.60;99.90;;;;;;5038948;28;20481;-36
2022/09/30 07:37:15;;;;;;;7.95;4.45;;;8.60;99.90;;;;;;5059323;28;20497;-37
2022/09/30 07:39:43;;;;;;;5.70;3.40;;;8.70;99.90;;;;;;5065117;28;20045;-38
2022/09/30 07:42:09;;;;;;;7.68;4.38;;;8.80;99.90;;;;;;5065954;28;20036;-39
2022/09/30 07:44:40;;;;;;;8.50;4.10;;;8.90;99.90;;;;;;5060640;28;20036;-37
2022/09/30 07:47:08;;;;;;;8.52;4.20;;;8.90;99.90;;;;;;5053409;28;20056;-37
2022/09/30 07:49:34;;;;;;;9.02;4.10;;;9.00;99.90;;;;;;5049649;28;20150;-38
2022/09/30 07:52:00;;;;;;;5.78;3.90;;;9.10;99.90;;;;;;5050817;28;20128;-38
2022/09/30 07:54:29;;;;;;;9.20;4.50;;;9.20;99.90;;;;;;5033730;28;20044;-38
2022/09/30 07:56:57;;;;;;;8.52;4.65;;;9.30;99.90;;;;;;5059681;28;20247;-38
2022/09/30 07:59:23;;;;;;;6.93;4.38;;;9.30;99.90;;;;;;5058734;28;20051;-38
2022/09/30 08:01:49;;;;;;;8.38;4.72;;;9.40;99.90;;;;;;5041662;28;20117;-38
2022/09/30 08:04:17;;;;;;;28.58;14.20;;;9.50;99.90;;;;;;5052327;28;20045;-38
2022/09/30 08:06:49;;;;;;;24.85;16.48;;;9.60;99.90;;;;;;5051817;28;20055;-38
2022/09/30 08:09:18;;;;;;;25.05;14.95;;;9.70;99.90;;;;;;5056674;28;20078;-37
2022/09/30 08:11:44;;;;;;;22.98;16.13;;;9.80;99.90;;;;;;5057824;28;20040;-38
2022/09/30 08:14:14;;;;;;;9.88;6.82;;;9.90;99.90;;;;;;5051943;28;20033;-39
2022/09/30 08:16:40;;;;;;;11.63;8.27;;;10.00;99.90;;;;;;5050935;28;20036;-37
2022/09/30 08:19:06;;;;;;;11.52;7.50;;;10.10;99.90;;;;;;5056991;28;20061;-38
2022/09/30 08:21:32;;;;;;;8.50;5.80;;;10.20;99.90;;;;;;5050159;28;20041;-38
2022/09/30 08:23:57;;;;;;;9.40;4.85;;;10.40;99.90;;;;;;5048848;28;20039;-38
2022/09/30 08:26:23;;;;;;;7.22;4.78;;;10.50;99.90;;;;;;5052200;28;20052;-38
2022/09/30 08:28:49;;;;;;;8.82;5.75;;;10.60;99.90;;;;;;5055444;28;20082;-38
2022/09/30 08:31:18;;;;;;;9.90;5.60;;;10.80;99.90;;;;;;5051223;28;20057;-38
2022/09/30 08:33:44;;;;;;;9.60;5.85;;;10.90;99.90;;;;;;5045446;28;20136;-38
2022/09/30 08:36:15;;;;;;;14.95;8.07;;;11.00;99.90;;;;;;5056286;28;20554;-38
2022/09/30 08:38:42;;;;;;;8.77;5.97;;;11.10;99.90;;;;;;5049606;28;20047;-38
2022/09/30 08:41:26;;;;;;;10.57;6.25;;;11.20;99.90;;;;;;5054937;28;20321;-38
2022/09/30 08:44:01;;;;;;;9.63;6.45;;;11.30;99.90;;;;;;5060559;28;20037;-39
2022/09/30 08:47:04;;;;;;;9.35;6.05;;;11.50;99.90;;;;;;5052999;28;20036;-38
2022/09/30 08:50:06;;;;;;;8.00;5.10;;;11.50;99.90;;;;;;5051042;28;20082;-39
2022/09/30 08:52:48;;;;;;;13.25;7.65;;;11.70;99.90;;;;;;5047883;28;20052;-38
2022/09/30 08:55:27;;;;;;;10.00;5.47;;;11.80;99.90;;;;;;5045848;28;20135;-39
2022/09/30 08:57:55;;;;;;;9.35;5.68;;;11.90;99.90;;;;;;5057096;28;20707;-39
2022/09/30 09:00:21;;;;;;;8.05;5.57;;;12.00;99.90;;;;;;5056087;28;20032;-39
2022/09/30 09:02:53;;;;;;;9.15;5.10;;;12.10;99.90;;;;;;5059310;28;20053;-39
2022/09/30 09:05:45;;;;;;;8.68;6.07;;;12.30;99.90;;;;;;5027442;28;20040;-38
2022/09/30 09:08:27;;;;;;;7.73;5.30;;;12.40;99.90;;;;;;5041998;28;20536;-38
2022/09/30 09:11:09;;;;;;;7.95;5.82;;;12.50;99.90;;;;;;5042028;28;20041;-37
2022/09/30 09:13:53;;;;;;;8.32;6.00;;;12.60;99.90;;;;;;5047237;28;20541;-38
2022/09/30 09:16:49;;;;;;;8.88;5.28;;;12.80;99.90;;;;;;5040381;28;20124;-38
2022/09/30 09:19:23;;;;;;;8.70;5.63;;;13.00;99.90;;;;;;5047606;28;20071;-39
2022/09/30 09:21:56;;;;;;;8.43;4.25;;;13.10;99.90;;;;;;5043140;28;20029;-36
2022/09/30 09:24:32;;;;;;;7.18;3.97;;;13.30;99.90;;;;;;5047021;28;20040;-37
2022/09/30 09:26:58;;;;;;;6.75;4.68;;;13.40;99.90;;;;;;5052211;28;20059;-38
2022/09/30 09:29:44;;;;;;;8.20;4.53;;;13.50;99.90;;;;;;5042938;28;20114;-38
2022/09/30 09:32:19;;;;;;;6.38;4.28;;;13.60;99.90;;;;;;5041583;28;20032;-38
2022/09/30 09:34:51;;;;;;;7.00;4.57;;;13.70;99.90;;;;;;5041618;28;20049;-38
2022/09/30 09:37:17;;;;;;;;;;;13.80;99.90;;;;;;5049066;28;20116;-37
2022/09/30 09:39:58;;;;;;;7.30;3.75;;;13.90;99.50;;;;;;5050331;28;20078;-39
2022/09/30 09:42:48;;;;;;;5.55;3.30;;;14.00;99.80;;;;;;5047076;28;20553;-38
2022/09/30 09:45:23;;;;;;;4.68;2.90;;;14.10;98.90;;;;;;5053438;28;20049;-38
2022/09/30 09:47:56;;;;;;;5.95;3.22;;;14.20;97.50;;;;;;5049266;28;20077;-38
2022/09/30 09:50:50;;;;;;;5.03;2.80;;;14.20;97.70;;;;;;5048965;28;20056;-38
2022/09/30 09:53:38;;;;;;;4.18;2.55;;;14.40;96.30;;;;;;5049554;28;20508;-37
2022/09/30 09:56:17;;;;;;;5.90;3.20;;;14.40;96.70;;;;;;5053062;28;20485;-38
2022/09/30 09:59:04;;;;;;;6.32;2.90;;;14.40;96.70;;;;;;5059146;28;20516;-38
2022/09/30 10:01:35;;;;;;;6.47;2.95;;;14.50;95.60;;;;;;5054712;28;20383;-37
2022/09/30 10:04:24;;;;;;;4.57;2.97;;;14.50;96.30;;;;;;5057939;28;20040;-37
2022/09/30 10:07:11;;;;;;;4.20;2.65;;;14.60;96.30;;;;;;5048840;28;20048;-38
2022/09/30 10:09:39;;;;;;;4.40;2.90;;;14.70;96.10;;;;;;5046009;28;20496;-39
2022/09/30 10:12:04;;;;;;;5.10;3.35;;;14.80;95.80;;;;;;5055250;28;20036;-39
2022/09/30 10:14:31;;;;;;;6.13;2.88;;;14.80;95.90;;;;;;5058098;28;20033;-38
2022/09/30 10:16:59;;;;;;;4.45;2.20;;;14.90;96.00;;;;;;5064198;28;20059;-38
2022/09/30 10:19:28;;;;;;;4.38;2.72;;;15.00;95.90;;;;;;5054411;28;20586;-38
2022/09/30 10:22:10;;;;;;;5.88;2.92;;;15.10;95.20;;;;;;5052478;28;20041;-38
2022/09/30 10:24:38;;;;;;;5.65;3.00;;;15.20;94.50;;;;;;5049889;28;20041;-37
2022/09/30 10:27:28;;;;;;;4.30;2.55;;;15.20;94.60;;;;;;5047174;28;20502;-38
2022/09/30 10:29:54;;;;;;;3.13;1.80;;;15.30;94.10;;;;;;5034317;28;20049;-38
2022/09/30 10:32:20;;;;;;;3.28;2.00;;;15.30;94.40;;;;;;5060069;28;20501;-38
2022/09/30 10:34:55;;;;;;;3.75;2.30;;;15.30;94.40;;;;;;5057877;28;20501;-37
2022/09/30 10:37:23;;;;;;;4.00;2.50;;;15.40;93.60;;;;;;5061168;28;20037;-39
2022/09/30 10:39:57;;;;;;;2.97;1.50;;;15.40;93.40;;;;;;5042474;28;20370;-39
2022/09/30 10:42:26;;;;;;;2.67;1.30;;;15.50;93.20;;;;;;5055446;28;20072;-38
2022/09/30 10:44:56;;;;;;;2.17;1.10;;;15.50;92.70;;;;;;5055365;28;20040;-39
2022/09/30 10:47:25;;;;;;;6.35;1.50;;;15.50;92.10;;;;;;5053116;28;20056;-38
2022/09/30 10:50:07;;;;;;;2.92;1.38;;;15.70;92.40;;;;;;5054761;28;20037;-40
2022/09/30 10:52:55;;;;;;;2.47;1.42;;;15.70;91.80;;;;;;5051911;28;20052;-38
2022/09/30 10:55:21;;;;;;;1.95;1.20;;;15.90;90.50;;;;;;5045208;28;20086;-38
2022/09/30 10:57:49;;;;;;;2.50;1.30;;;15.90;91.30;;;;;;5059864;28;20080;-38
2022/09/30 11:00:20;;;;;;;3.60;1.95;;;16.10;90.90;;;;;;5053066;28;20424;-39
2022/09/30 11:03:04;;;;;;;3.03;1.25;;;16.20;90.20;;;;;;5047904;28;20053;-39
2022/09/30 11:05:43;;;;;;;2.33;1.30;;;16.10;87.30;;;;;;5050283;28;20048;-38
2022/09/30 11:08:27;;;;;;;3.63;1.70;;;16.10;87.40;;;;;;5047938;28;20079;-39
2022/09/30 11:11:09;;;;;;;1.83;0.90;;;16.00;86.90;;;;;;5053324;28;20052;-37
2022/09/30 11:13:34;;;;;;;1.33;0.60;;;16.00;84.30;;;;;;5060879;28;20492;-36
2022/09/30 11:16:18;;;;;;;1.30;0.57;;;16.00;83.50;;;;;;5047729;28;20041;-37
2022/09/30 11:18:51;;;;;;;1.50;0.88;;;16.00;79.30;;;;;;5050074;28;20037;-38
2022/09/30 11:21:25;;;;;;;;;;;16.00;81.40;;;;;;5047342;28;20041;-38
2022/09/30 11:24:15;;;;;;;1.38;0.70;;;16.00;79.50;;;;;;5062762;28;19966;-38
2022/09/30 11:26:58;;;;;;;5.05;3.20;;;16.00;80.60;;;;;;5052211;28;20449;-38
2022/09/30 11:29:39;;;;;;;8.32;4.60;;;16.20;84.10;;;;;;5050794;28;20041;-38
2022/09/30 11:32:15;;;;;;;7.53;4.97;;;16.40;84.10;;;;;;5047964;28;20168;-37
2022/09/30 11:34:58;;;;;;;6.55;4.30;;;16.60;84.50;;;;;;5053913;28;20107;-37
2022/09/30 11:37:58;;;;;;;1.65;0.90;;;16.70;83.90;;;;;;5051607;28;20041;-38
2022/09/30 11:40:48;;;;;;;2.05;0.80;;;16.90;80.60;;;;;;5057131;28;20315;-38
2022/09/30 11:43:23;;;;;;;1.27;0.80;;;17.20;79.90;;;;;;5057599;28;20052;-38
2022/09/30 11:45:52;;;;;;;3.15;0.75;;;17.30;75.30;;;;;;5045939;28;20033;-39
2022/09/30 11:49:07;;;;;;;1.98;1.20;;;17.40;73.20;;;;;;5053307;28;20136;-37
2022/09/30 11:52:01;;;;;;;3.72;1.10;;;17.50;69.80;;;;;;5054077;28;20043;-38
2022/09/30 11:54:38;;;;;;;1.75;0.90;;;17.60;70.40;;;;;;5059313;28;20404;-38
2022/09/30 11:57:39;;;;;;;1.40;0.85;;;17.60;70.30;;;;;;5053151;28;20095;-37
2022/09/30 12:00:16;;;;;;;2.25;1.15;;;17.50;69.20;;;;;;5052712;28;20437;-37
2022/09/30 12:02:49;;;;;;;3.65;1.13;;;17.30;70.40;;;;;;5052758;28;20059;-38
2022/09/30 12:05:40;;;;;;;2.70;1.17;;;17.40;72.40;;;;;;5053060;28;20382;-38
2022/09/30 12:08:28;;;;;;;4.82;1.15;;;17.90;71.60;;;;;;5045691;28;20040;-38
2022/09/30 12:11:32;;;;;;;2.28;1.30;;;18.60;66.70;;;;;;5051087;28;20041;-38
2022/09/30 12:14:04;;;;;;;1.70;1.02;;;19.00;61.00;;;;;;5053387;28;20028;-38
2022/09/30 12:16:32;;;;;;;4.20;1.25;;;19.20;57.90;;;;;;5048849;28;20037;-38
2022/09/30 12:19:41;;;;;;;5.50;1.13;;;19.30;57.60;;;;;;5038423;28;20055;-37
2022/09/30 12:22:27;;;;;;;6.85;1.30;;;19.50;56.90;;;;;;4931497;29;20069;-39
2022/09/30 12:24:53;;;;;;;1.20;0.90;;;19.90;55.80;;;;;;4926123;29;21517;-39
2022/09/30 12:27:29;;;;;;;1.92;1.10;;;20.10;56.80;;;;;;5009093;28;20056;-38
2022/09/30 12:30:16;;;;;;;2.15;1.08;;;19.90;55.50;;;;;;5051598;28;20037;-38
2022/09/30 12:32:57;;;;;;;1.38;0.82;;;19.40;56.30;;;;;;5045793;28;20041;-38
2022/09/30 12:35:44;;;;;;;2.60;1.30;;;19.60;56.00;;;;;;5052809;28;20083;-37
2022/09/30 12:38:28;;;;;;;2.47;1.65;;;20.10;56.50;;;;;;5049621;28;20513;-38
2022/09/30 12:41:39;;;;;;;2.63;1.23;;;20.60;53.20;;;;;;5056191;28;20419;-38
2022/09/30 12:44:26;;;;;;;2.13;1.60;;;21.00;53.40;;;;;;4995101;28;20516;-39
2022/09/30 12:46:57;;;;;;;3.05;1.10;;;21.00;50.90;;;;;;5003076;28;20589;-38
2022/09/30 12:49:25;;;;;;;2.97;1.38;;;21.20;51.00;;;;;;5038017;28;20520;-38
2022/09/30 12:51:58;;;;;;;1.90;1.20;;;21.40;51.30;;;;;;5057205;28;20116;-38
2022/09/30 12:54:32;;;;;;;1.92;1.13;;;21.70;50.20;;;;;;5049464;28;20055;-37
2022/09/30 12:57:02;;;;;;;2.55;1.55;;;21.90;48.00;;;;;;5050653;28;20566;-38
2022/09/30 12:59:35;;;;;;;3.72;2.10;;;22.00;48.60;;;;;;5045511;28;20603;-39
2022/09/30 13:02:03;;;;;;;2.72;1.85;;;21.90;47.80;;;;;;5046326;28;20049;-39
2022/09/30 13:04:34;;;;;;;3.83;2.20;;;21.90;48.20;;;;;;5050812;28;20045;-38
2022/09/30 13:06:59;;;;;;;4.15;2.80;;;21.80;48.30;;;;;;5052953;28;20048;-39
2022/09/30 13:09:36;;;;;;;3.28;2.00;;;21.10;49.50;;;;;;5049111;28;20041;-38
2022/09/30 13:12:02;;;;;;;2.92;2.10;;;21.30;50.60;;;;;;5053301;28;20044;-39
2022/09/30 13:14:36;;;;;;;3.10;2.20;;;21.70;49.70;;;;;;5051924;28;20045;-36
2022/09/30 13:17:21;;;;;;;3.80;2.67;;;21.70;50.30;;;;;;5039750;28;20045;-37
2022/09/30 13:19:50;;;;;;;4.95;2.47;;;22.00;49.50;;;;;;5062377;28;20036;-38
2022/09/30 13:22:19;;;;;;;3.95;2.50;;;22.50;46.90;;;;;;5060493;28;20045;-38
2022/09/30 13:24:57;;;;;;;4.93;2.72;;;22.40;45.90;;;;;;5056717;28;20041;-38
2022/09/30 13:27:31;;;;;;;4.05;2.45;;;21.70;48.40;;;;;;5053604;28;20616;-39